createdAt,value
2023-01-27T00:00:34.522Z,1022.51
2023-01-27T00:01:34.520Z,1022.51
2023-01-27T00:02:35.521Z,1022.51
2023-01-27T00:03:34.528Z,1022.51
2023-01-27T00:04:34.449Z,1022.52
2023-01-27T00:05:34.449Z,1022.46
2023-01-27T00:06:34.428Z,1022.47
2023-01-27T00:07:34.452Z,1022.47
2023-01-27T00:08:34.406Z,1022.45
2023-01-27T00:09:34.402Z,1022.47
2023-01-27T00:10:34.426Z,1022.47
2023-01-27T00:11:34.345Z,1022.46
2023-01-27T00:12:34.373Z,1022.47
2023-01-27T00:13:34.331Z,1022.48
2023-01-27T00:14:34.334Z,1022.53
2023-01-27T00:15:34.391Z,1022.52
2023-01-27T00:16:34.303Z,1022.52
2023-01-27T00:17:34.302Z,1022.53
2023-01-27T00:18:34.314Z,1022.55
2023-01-27T00:19:34.261Z,1022.50
2023-01-27T00:20:34.246Z,1022.50
2023-01-27T00:21:34.250Z,1022.51
2023-01-27T00:22:34.207Z,1022.50
2023-01-27T00:23:34.221Z,1022.53
2023-01-27T00:24:34.214Z,1022.53
2023-01-27T00:25:34.218Z,1022.53
2023-01-27T00:26:34.186Z,1022.51
2023-01-27T00:27:36.553Z,1022.54
2023-01-27T00:28:34.141Z,1022.53
2023-01-27T00:29:34.211Z,1022.51
2023-01-27T00:30:34.144Z,1022.59
2023-01-27T00:31:34.269Z,1022.57
2023-01-27T00:32:34.097Z,1022.59
2023-01-27T00:33:34.093Z,1022.66
2023-01-27T00:34:34.056Z,1022.62
2023-01-27T00:35:34.068Z,1022.61
2023-01-27T00:36:34.056Z,1022.66
2023-01-27T00:37:34.038Z,1022.63
2023-01-27T00:38:37.000Z,1022.63
2023-01-27T00:39:33.994Z,1022.61
2023-01-27T00:41:45.196Z,1022.64
2023-01-27T00:42:45.206Z,1022.58
2023-01-27T00:43:45.153Z,1022.61
2023-01-27T00:44:45.134Z,1022.62
2023-01-27T00:45:45.098Z,1022.59
2023-01-27T00:46:45.203Z,1022.62
2023-01-27T00:47:45.111Z,1022.64
2023-01-27T00:48:45.092Z,1022.66
2023-01-27T00:49:45.061Z,1022.67
2023-01-27T00:50:45.067Z,1022.65
2023-01-27T00:51:45.078Z,1022.61
2023-01-27T00:52:45.114Z,1022.62
2023-01-27T00:53:45.036Z,1022.60
2023-01-27T00:54:44.978Z,1022.60
2023-01-27T00:55:44.978Z,1022.60
2023-01-27T00:56:44.959Z,1022.60
2023-01-27T00:57:44.948Z,1022.63
2023-01-27T00:58:44.960Z,1022.61
2023-01-27T00:59:44.931Z,1022.65
2023-01-27T01:00:44.922Z,1022.62
2023-01-27T01:01:44.992Z,1022.59
2023-01-27T01:02:44.894Z,1022.63
2023-01-27T01:03:44.895Z,1022.67
2023-01-27T01:04:44.874Z,1022.65
2023-01-27T01:05:44.859Z,1022.74
2023-01-27T01:06:44.857Z,1022.68
2023-01-27T01:08:05.857Z,1022.68
2023-01-27T01:08:44.791Z,1022.70
2023-01-27T01:09:44.821Z,1022.66
2023-01-27T01:10:44.794Z,1022.68
2023-01-27T01:11:44.790Z,1022.76
2023-01-27T01:12:44.758Z,1022.72
2023-01-27T01:13:44.761Z,1022.69
2023-01-27T01:14:44.775Z,1022.77
2023-01-27T01:15:44.805Z,1022.73
2023-01-27T01:16:44.727Z,1022.73
2023-01-27T01:17:44.718Z,1022.76
2023-01-27T01:18:44.676Z,1022.76
2023-01-27T01:19:44.671Z,1022.80
2023-01-27T01:20:44.643Z,1022.80
2023-01-27T01:21:44.626Z,1022.78
2023-01-27T01:22:44.639Z,1022.81
2023-01-27T01:23:44.609Z,1022.80
2023-01-27T01:24:44.578Z,1022.80
2023-01-27T01:25:44.591Z,1022.81
2023-01-27T01:26:44.601Z,1022.84
2023-01-27T01:27:44.555Z,1022.84
2023-01-27T01:28:44.547Z,1022.82
2023-01-27T01:29:44.532Z,1022.87
2023-01-27T01:30:44.520Z,1022.83
2023-01-27T01:31:44.556Z,1022.87
2023-01-27T01:32:44.491Z,1022.90
2023-01-27T01:33:44.480Z,1022.86
2023-01-27T01:34:44.463Z,1022.85
2023-01-27T01:35:44.458Z,1022.91
2023-01-27T01:36:44.430Z,1022.94
2023-01-27T01:37:44.447Z,1023.00
2023-01-27T01:38:44.418Z,1022.94
2023-01-27T01:40:38.752Z,1023.01
2023-01-27T01:41:38.748Z,1023.03
2023-01-27T01:42:38.738Z,1023.04
2023-01-27T01:43:38.712Z,1023.02
2023-01-27T01:44:38.711Z,1023.05
2023-01-27T01:45:38.686Z,1023.03
2023-01-27T01:46:41.299Z,1023.07
2023-01-27T01:47:38.676Z,1023.07
2023-01-27T01:48:38.683Z,1023.12
2023-01-27T01:49:38.624Z,1023.01
2023-01-27T01:50:38.641Z,1023.07
2023-01-27T01:51:38.611Z,1023.10
2023-01-27T01:52:38.595Z,1023.10
2023-01-27T01:53:38.585Z,1023.09
2023-01-27T01:54:38.558Z,1023.03
2023-01-27T01:55:38.549Z,1023.11
2023-01-27T01:56:38.554Z,1023.08
2023-01-27T01:57:38.538Z,1023.16
2023-01-27T01:58:38.526Z,1023.11
2023-01-27T01:59:38.533Z,1023.12
2023-01-27T02:00:38.489Z,1023.17
2023-01-27T02:01:38.489Z,1023.17
2023-01-27T02:02:38.765Z,1023.12
2023-01-27T02:03:38.441Z,1023.09
2023-01-27T02:04:38.435Z,1023.13
2023-01-27T02:05:38.423Z,1023.11
2023-01-27T02:06:38.406Z,1023.16
2023-01-27T02:07:38.405Z,1023.16
2023-01-27T02:08:38.399Z,1023.19
2023-01-27T02:09:38.401Z,1023.15
2023-01-27T02:10:38.356Z,1023.20
2023-01-27T02:11:38.346Z,1023.22
2023-01-27T02:12:38.329Z,1023.18
2023-01-27T02:13:38.326Z,1023.12
2023-01-27T02:14:38.319Z,1023.20
2023-01-27T02:15:38.286Z,1023.19
2023-01-27T02:16:38.291Z,1023.17
2023-01-27T02:17:38.263Z,1023.21
2023-01-27T02:18:38.249Z,1023.17
2023-01-27T02:19:38.236Z,1023.20
2023-01-27T02:20:38.254Z,1023.25
2023-01-27T02:21:38.202Z,1023.24
2023-01-27T02:22:38.186Z,1023.19
2023-01-27T02:23:38.201Z,1023.22
2023-01-27T02:24:38.168Z,1023.20
2023-01-27T02:25:38.195Z,1023.28
2023-01-27T02:26:38.139Z,1023.31
2023-01-27T02:27:38.119Z,1023.29
2023-01-27T02:28:38.115Z,1023.29
2023-01-27T02:29:38.102Z,1023.32
2023-01-27T02:30:38.137Z,1023.33
2023-01-27T02:31:38.221Z,1023.32
2023-01-27T02:32:40.126Z,1023.35
2023-01-27T02:33:38.055Z,1023.36
2023-01-27T02:34:38.047Z,1023.33
2023-01-27T02:35:38.030Z,1023.33
2023-01-27T02:36:38.021Z,1023.40
2023-01-27T02:37:38.006Z,1023.43
2023-01-27T02:38:37.987Z,1023.38
2023-01-27T02:39:37.972Z,1023.37
2023-01-27T02:40:38.027Z,1023.44
2023-01-27T02:41:37.963Z,1023.42
2023-01-27T02:42:37.942Z,1023.47
2023-01-27T02:43:37.914Z,1023.43
2023-01-27T02:44:37.912Z,1023.45
2023-01-27T02:45:37.895Z,1023.48
2023-01-27T02:46:37.888Z,1023.50
2023-01-27T02:47:37.883Z,1023.45
2023-01-27T02:48:37.918Z,1023.50
2023-01-27T02:49:37.888Z,1023.52
2023-01-27T02:50:37.818Z,1023.48
2023-01-27T02:51:37.803Z,1023.45
2023-01-27T02:52:37.802Z,1023.49
2023-01-27T02:53:37.778Z,1023.43
2023-01-27T02:54:37.807Z,1023.41
2023-01-27T02:55:37.763Z,1023.44
2023-01-27T02:56:37.746Z,1023.41
2023-01-27T02:57:37.741Z,1023.40
2023-01-27T02:58:37.754Z,1023.37
2023-01-27T02:59:37.703Z,1023.42
2023-01-27T03:00:37.688Z,1023.42
2023-01-27T03:01:37.714Z,1023.41
2023-01-27T03:02:37.681Z,1023.41
2023-01-27T03:03:37.641Z,1023.43
2023-01-27T03:04:37.654Z,1023.44
2023-01-27T03:05:37.635Z,1023.44
2023-01-27T03:06:37.636Z,1023.45
2023-01-27T03:07:37.606Z,1023.44
2023-01-27T03:08:37.597Z,1023.41
2023-01-27T03:09:37.588Z,1023.39
2023-01-27T03:10:37.587Z,1023.38
2023-01-27T03:11:37.562Z,1023.40
2023-01-27T03:12:37.545Z,1023.39
2023-01-27T03:13:37.553Z,1023.42
2023-01-27T03:14:37.517Z,1023.40
2023-01-27T03:15:37.519Z,1023.43
2023-01-27T03:16:37.472Z,1023.42
2023-01-27T03:17:37.469Z,1023.43
2023-01-27T03:18:37.493Z,1023.43
2023-01-27T03:19:37.436Z,1023.45
2023-01-27T03:20:37.420Z,1023.47
2023-01-27T03:21:37.426Z,1023.43
2023-01-27T03:22:37.430Z,1023.42
2023-01-27T03:23:37.432Z,1023.40
2023-01-27T03:24:39.548Z,1023.42
2023-01-27T03:25:37.361Z,1023.38
2023-01-27T03:26:37.347Z,1023.36
2023-01-27T03:27:37.332Z,1023.35
2023-01-27T03:28:37.322Z,1023.35
2023-01-27T03:29:37.348Z,1023.37
2023-01-27T03:30:37.402Z,1023.35
2023-01-27T03:31:37.509Z,1023.38
2023-01-27T03:32:37.275Z,1023.40
2023-01-27T03:33:37.267Z,1023.36
2023-01-27T03:34:37.230Z,1023.38
2023-01-27T03:35:37.243Z,1023.36
2023-01-27T03:36:37.236Z,1023.36
2023-01-27T03:37:37.208Z,1023.35
2023-01-27T03:38:37.231Z,1023.39
2023-01-27T03:39:37.195Z,1023.36
2023-01-27T03:40:37.160Z,1023.40
2023-01-27T03:41:37.164Z,1023.41
2023-01-27T03:42:37.142Z,1023.48
2023-01-27T03:43:37.120Z,1023.43
2023-01-27T03:44:37.123Z,1023.46
2023-01-27T03:45:37.097Z,1023.47
2023-01-27T03:46:37.093Z,1023.46
2023-01-27T03:47:37.101Z,1023.46
2023-01-27T03:48:37.090Z,1023.52
2023-01-27T03:49:37.061Z,1023.49
2023-01-27T03:50:37.024Z,1023.52
2023-01-27T03:51:37.015Z,1023.51
2023-01-27T03:52:37.030Z,1023.54
2023-01-27T03:53:36.992Z,1023.49
2023-01-27T03:54:36.967Z,1023.51
2023-01-27T03:55:36.979Z,1023.52
2023-01-27T03:56:36.940Z,1023.48
2023-01-27T03:57:36.937Z,1023.45
2023-01-27T03:58:36.960Z,1023.47
2023-01-27T03:59:36.925Z,1023.47
2023-01-27T04:00:36.895Z,1023.53
2023-01-27T04:01:36.934Z,1023.49
2023-01-27T04:02:36.900Z,1023.53
2023-01-27T04:03:36.843Z,1023.55
2023-01-27T04:04:36.894Z,1023.58
2023-01-27T04:05:36.826Z,1023.54
2023-01-27T04:06:36.822Z,1023.56
2023-01-27T04:07:36.807Z,1023.56
2023-01-27T04:08:36.786Z,1023.53
2023-01-27T04:09:36.791Z,1023.53
2023-01-27T04:10:36.775Z,1023.54
2023-01-27T04:11:36.770Z,1023.53
2023-01-27T04:12:36.747Z,1023.52
2023-01-27T04:13:36.760Z,1023.49
2023-01-27T04:14:36.695Z,1023.53
2023-01-27T04:15:36.757Z,1023.53
2023-01-27T04:16:36.683Z,1023.54
2023-01-27T04:17:36.694Z,1023.45
2023-01-27T04:18:36.643Z,1023.44
2023-01-27T04:19:36.651Z,1023.48
2023-01-27T04:20:36.669Z,1023.44
2023-01-27T04:21:36.643Z,1023.43
2023-01-27T04:22:36.613Z,1023.47
2023-01-27T04:23:36.603Z,1023.49
2023-01-27T04:24:36.581Z,1023.46
2023-01-27T04:25:36.575Z,1023.51
2023-01-27T04:26:36.560Z,1023.50
2023-01-27T04:27:36.555Z,1023.48
2023-01-27T04:28:44.352Z,1023.49
2023-01-27T04:29:37.514Z,1023.48
2023-01-27T04:30:36.514Z,1023.46
2023-01-27T04:31:36.515Z,1023.47
2023-01-27T04:32:36.456Z,1023.47
2023-01-27T04:33:36.487Z,1023.47
2023-01-27T04:34:36.448Z,1023.49
2023-01-27T04:35:38.956Z,1023.50
2023-01-27T04:36:36.426Z,1023.52
2023-01-27T04:37:36.390Z,1023.49
2023-01-27T04:38:36.393Z,1023.51
2023-01-27T04:39:36.420Z,1023.50
2023-01-27T04:40:36.356Z,1023.50
2023-01-27T04:41:36.337Z,1023.53
2023-01-27T04:42:36.327Z,1023.50
2023-01-27T04:43:36.321Z,1023.51
2023-01-27T04:44:36.300Z,1023.49
2023-01-27T04:45:36.336Z,1023.53
2023-01-27T04:46:36.263Z,1023.51
2023-01-27T04:47:36.277Z,1023.51
2023-01-27T04:48:36.278Z,1023.53
2023-01-27T04:49:36.244Z,1023.58
2023-01-27T04:50:36.248Z,1023.60
2023-01-27T04:51:36.242Z,1023.56
2023-01-27T04:52:36.211Z,1023.61
2023-01-27T04:53:36.200Z,1023.61
2023-01-27T04:54:36.166Z,1023.62
2023-01-27T04:55:36.171Z,1023.64
2023-01-27T04:56:36.175Z,1023.64
2023-01-27T04:57:36.126Z,1023.68
2023-01-27T04:58:36.116Z,1023.72
2023-01-27T04:59:36.119Z,1023.73
2023-01-27T05:00:36.075Z,1023.70
2023-01-27T05:01:36.163Z,1023.71
2023-01-27T05:02:36.121Z,1023.71
2023-01-27T05:03:36.059Z,1023.72
2023-01-27T05:04:36.041Z,1023.72
2023-01-27T05:05:36.030Z,1023.77
2023-01-27T05:06:36.027Z,1023.75
2023-01-27T05:07:41.703Z,1023.80
2023-01-27T05:08:36.006Z,1023.78
2023-01-27T05:09:35.990Z,1023.81
2023-01-27T05:10:35.950Z,1023.75
2023-01-27T05:11:35.960Z,1023.77
2023-01-27T05:12:36.157Z,1023.77
2023-01-27T05:13:35.934Z,1023.76
2023-01-27T05:14:35.943Z,1023.78
2023-01-27T05:15:35.922Z,1023.77
2023-01-27T05:16:35.970Z,1023.74
2023-01-27T05:17:35.869Z,1023.79
2023-01-27T05:18:35.854Z,1023.77
2023-01-27T05:19:35.872Z,1023.80
2023-01-27T05:20:35.834Z,1023.79
2023-01-27T05:21:35.806Z,1023.79
2023-01-27T05:22:35.792Z,1023.77
2023-01-27T05:23:35.795Z,1023.81
2023-01-27T05:24:35.805Z,1023.80
2023-01-27T05:25:35.755Z,1023.82
2023-01-27T05:26:35.802Z,1023.80
2023-01-27T05:27:35.722Z,1023.78
2023-01-27T05:28:35.706Z,1023.77
2023-01-27T05:29:35.726Z,1023.74
2023-01-27T05:30:35.700Z,1023.79
2023-01-27T05:31:35.849Z,1023.78
2023-01-27T05:32:35.681Z,1023.77
2023-01-27T05:33:35.650Z,1023.76
2023-01-27T05:34:35.631Z,1023.78
2023-01-27T05:35:35.664Z,1023.79
2023-01-27T05:36:35.632Z,1023.79
2023-01-27T05:37:35.608Z,1023.83
2023-01-27T05:38:35.600Z,1023.79
2023-01-27T05:39:35.570Z,1023.81
2023-01-27T05:40:35.565Z,1023.87
2023-01-27T05:41:35.525Z,1023.87
2023-01-27T05:42:35.561Z,1023.88
2023-01-27T05:43:35.513Z,1023.87
2023-01-27T05:44:35.499Z,1023.94
2023-01-27T05:45:35.504Z,1023.94
2023-01-27T05:46:35.505Z,1023.93
2023-01-27T05:47:35.463Z,1023.96
2023-01-27T05:48:35.482Z,1023.99
2023-01-27T05:49:35.449Z,1023.94
2023-01-27T05:50:35.418Z,1023.91
2023-01-27T05:51:35.446Z,1023.90
2023-01-27T05:52:35.412Z,1023.87
2023-01-27T05:53:35.410Z,1023.89
2023-01-27T05:54:35.394Z,1023.87
2023-01-27T05:55:35.373Z,1023.87
2023-01-27T05:56:35.332Z,1023.84
2023-01-27T05:57:35.348Z,1023.86
2023-01-27T05:58:35.313Z,1023.85
2023-01-27T05:59:35.302Z,1023.85
2023-01-27T06:00:35.315Z,1023.85
2023-01-27T06:01:35.419Z,1023.85
2023-01-27T06:02:35.294Z,1023.85
2023-01-27T06:03:35.261Z,1023.89
2023-01-27T06:04:35.225Z,1023.86
2023-01-27T06:05:35.255Z,1023.86
2023-01-27T06:06:35.228Z,1023.86
2023-01-27T06:07:35.212Z,1023.87
2023-01-27T06:08:35.196Z,1023.83
2023-01-27T06:09:35.152Z,1023.91
2023-01-27T06:10:35.176Z,1023.94
2023-01-27T06:11:35.128Z,1023.94
2023-01-27T06:12:35.137Z,1023.90
2023-01-27T06:13:35.144Z,1023.94
2023-01-27T06:14:35.148Z,1023.94
2023-01-27T06:15:35.101Z,1023.91
2023-01-27T06:16:35.118Z,1023.91
2023-01-27T06:17:35.059Z,1023.88
2023-01-27T06:18:35.082Z,1023.90
2023-01-27T06:19:35.021Z,1023.90
2023-01-27T06:20:35.066Z,1023.88
2023-01-27T06:21:35.015Z,1023.89
2023-01-27T06:22:35.016Z,1023.95
2023-01-27T06:23:34.997Z,1023.97
2023-01-27T06:24:35.034Z,1023.96
2023-01-27T06:25:34.956Z,1023.98
2023-01-27T06:26:34.943Z,1023.97
2023-01-27T06:27:34.918Z,1024.01
2023-01-27T06:28:34.922Z,1024.02
2023-01-27T06:29:34.921Z,1024.01
2023-01-27T06:30:34.901Z,1023.99
2023-01-27T06:31:34.935Z,1023.96
2023-01-27T06:32:34.865Z,1023.99
2023-01-27T06:33:34.833Z,1024.05
2023-01-27T06:34:34.856Z,1024.06
2023-01-27T06:35:35.512Z,1024.05
2023-01-27T06:36:34.810Z,1024.09
2023-01-27T06:37:34.805Z,1024.04
2023-01-27T06:38:34.768Z,1024.10
2023-01-27T06:39:34.782Z,1024.09
2023-01-27T06:40:34.754Z,1024.08
2023-01-27T06:41:34.760Z,1024.08
2023-01-27T06:42:34.751Z,1024.03
2023-01-27T06:43:34.732Z,1024.01
2023-01-27T06:44:34.685Z,1024.01
2023-01-27T06:45:34.696Z,1024.04
2023-01-27T06:46:34.703Z,1024.07
2023-01-27T06:47:34.664Z,1024.13
2023-01-27T06:48:34.644Z,1024.11
2023-01-27T06:49:34.639Z,1024.14
2023-01-27T06:50:34.633Z,1024.18
2023-01-27T06:51:34.658Z,1024.15
2023-01-27T06:52:34.601Z,1024.16
2023-01-27T06:53:34.595Z,1024.11
2023-01-27T06:54:34.557Z,1024.13
2023-01-27T06:55:34.576Z,1024.14
2023-01-27T06:56:34.553Z,1024.14
2023-01-27T06:57:34.534Z,1024.16
2023-01-27T06:58:34.536Z,1024.19
2023-01-27T06:59:34.537Z,1024.23
2023-01-27T07:00:34.492Z,1024.21
2023-01-27T07:01:34.556Z,1024.14
2023-01-27T07:02:34.517Z,1024.20
2023-01-27T07:03:39.603Z,1024.19
2023-01-27T07:04:34.434Z,1024.22
2023-01-27T07:05:34.445Z,1024.21
2023-01-27T07:06:34.460Z,1024.25
2023-01-27T07:07:34.433Z,1024.29
2023-01-27T07:08:34.449Z,1024.30
2023-01-27T07:09:50.580Z,1024.29
2023-01-27T07:10:35.379Z,1024.28
2023-01-27T07:11:34.344Z,1024.29
2023-01-27T07:12:34.351Z,1024.27
2023-01-27T07:13:34.314Z,1024.27
2023-01-27T07:14:34.298Z,1024.25
2023-01-27T07:15:34.313Z,1024.29
2023-01-27T07:16:34.320Z,1024.33
2023-01-27T07:17:34.283Z,1024.33
2023-01-27T07:18:34.309Z,1024.34
2023-01-27T07:19:35.213Z,1024.40
2023-01-27T07:20:34.255Z,1024.37
2023-01-27T07:21:34.269Z,1024.43
2023-01-27T07:22:34.190Z,1024.37
2023-01-27T07:23:34.188Z,1024.40
2023-01-27T07:24:34.179Z,1024.43
2023-01-27T07:25:34.148Z,1024.42
2023-01-27T07:26:34.131Z,1024.43
2023-01-27T07:27:34.193Z,1024.43
2023-01-27T07:28:34.167Z,1024.43
2023-01-27T07:29:34.111Z,1024.46
2023-01-27T07:30:34.221Z,1024.49
2023-01-27T07:31:34.097Z,1024.47
2023-01-27T07:32:34.065Z,1024.47
2023-01-27T07:33:34.036Z,1024.47
2023-01-27T07:34:34.035Z,1024.51
2023-01-27T07:35:34.038Z,1024.47
2023-01-27T07:36:34.027Z,1024.48
2023-01-27T07:37:33.998Z,1024.50
2023-01-27T07:38:33.980Z,1024.43
2023-01-27T07:39:33.976Z,1024.43
2023-01-27T07:40:33.941Z,1024.47
2023-01-27T07:41:43.661Z,1024.53
2023-01-27T07:42:34.004Z,1024.53
2023-01-27T07:43:34.022Z,1024.47
2023-01-27T07:44:33.966Z,1024.54
2023-01-27T07:45:33.933Z,1024.55
2023-01-27T07:46:33.883Z,1024.55
2023-01-27T07:47:33.883Z,1024.55
2023-01-27T07:48:33.829Z,1024.52
2023-01-27T07:49:33.840Z,1024.57
2023-01-27T07:50:33.869Z,1024.64
2023-01-27T07:51:33.838Z,1024.61
2023-01-27T07:52:33.887Z,1024.62
2023-01-27T07:53:33.786Z,1024.64
2023-01-27T07:54:33.832Z,1024.65
2023-01-27T07:55:33.807Z,1024.69
2023-01-27T07:56:33.853Z,1024.63
2023-01-27T07:57:34.234Z,1024.64
2023-01-27T07:58:33.732Z,1024.71
2023-01-27T07:59:33.744Z,1024.64
2023-01-27T08:00:33.711Z,1024.67
2023-01-27T08:01:33.781Z,1024.71
2023-01-27T08:02:33.896Z,1024.73
2023-01-27T08:03:33.850Z,1024.67
2023-01-27T08:04:43.426Z,1024.66
2023-01-27T08:05:34.852Z,1024.65
2023-01-27T08:06:33.668Z,1024.63
2023-01-27T08:07:33.716Z,1024.64
2023-01-27T08:08:33.602Z,1024.66
2023-01-27T08:09:33.663Z,1024.66
2023-01-27T08:10:33.763Z,1024.69
2023-01-27T08:11:33.710Z,1024.72
2023-01-27T08:12:33.556Z,1024.70
2023-01-27T08:13:33.547Z,1024.70
2023-01-27T08:14:33.584Z,1024.65
2023-01-27T08:15:33.638Z,1024.62
2023-01-27T08:16:33.716Z,1024.70
2023-01-27T08:17:33.541Z,1024.67
2023-01-27T08:18:33.764Z,1024.73
2023-01-27T08:19:33.866Z,1024.75
2023-01-27T08:20:33.454Z,1024.68
2023-01-27T08:21:33.597Z,1024.75
2023-01-27T08:22:33.416Z,1024.75
2023-01-27T08:23:33.440Z,1024.77
2023-01-27T08:24:33.347Z,1024.79
2023-01-27T08:25:33.351Z,1024.77
2023-01-27T08:26:33.363Z,1024.77
2023-01-27T08:27:33.370Z,1024.77
2023-01-27T08:28:33.390Z,1024.76
2023-01-27T08:29:33.416Z,1024.78
2023-01-27T08:30:33.379Z,1024.76
2023-01-27T08:31:33.313Z,1024.80
2023-01-27T08:32:33.313Z,1024.78
2023-01-27T08:33:33.296Z,1024.77
2023-01-27T08:34:33.259Z,1024.77
2023-01-27T08:35:33.221Z,1024.77
2023-01-27T08:36:33.228Z,1024.77
2023-01-27T08:37:33.274Z,1024.76
2023-01-27T08:38:33.220Z,1024.78
2023-01-27T08:39:33.189Z,1024.80
2023-01-27T08:40:33.423Z,1024.77
2023-01-27T08:41:33.185Z,1024.79
2023-01-27T08:42:33.252Z,1024.79
2023-01-27T08:43:44.394Z,1024.76
2023-01-27T08:44:33.306Z,1024.74
2023-01-27T08:45:33.339Z,1024.75
2023-01-27T08:46:33.172Z,1024.76
2023-01-27T08:47:33.075Z,1024.80
2023-01-27T08:48:33.080Z,1024.79
2023-01-27T08:49:33.074Z,1024.78
2023-01-27T08:50:33.110Z,1024.77
2023-01-27T08:51:33.035Z,1024.81
2023-01-27T08:52:32.996Z,1024.82
2023-01-27T08:53:33.026Z,1024.84
2023-01-27T08:54:33.021Z,1024.83
2023-01-27T08:55:32.999Z,1024.84
2023-01-27T08:56:33.021Z,1024.80
2023-01-27T08:57:34.233Z,1024.84
2023-01-27T08:58:32.918Z,1024.84
2023-01-27T08:59:32.919Z,1024.84
2023-01-27T09:00:32.912Z,1024.85
2023-01-27T09:01:33.002Z,1024.88
2023-01-27T09:02:32.963Z,1024.93
2023-01-27T09:03:33.872Z,1024.95
2023-01-27T09:04:33.215Z,1024.94
2023-01-27T09:05:32.915Z,1024.97
2023-01-27T09:06:32.901Z,1024.97
2023-01-27T09:07:33.512Z,1024.92
2023-01-27T09:08:35.275Z,1024.98
2023-01-27T09:09:32.829Z,1024.98
2023-01-27T09:10:32.826Z,1024.99
2023-01-27T09:11:32.773Z,1025.04
2023-01-27T09:12:32.716Z,1025.02
2023-01-27T09:13:32.757Z,1025.02
2023-01-27T09:14:33.090Z,1025.05
2023-01-27T09:15:32.732Z,1025.11
2023-01-27T09:16:32.866Z,1025.07
2023-01-27T09:17:35.130Z,1025.14
2023-01-27T09:18:44.822Z,1025.09
2023-01-27T09:19:33.624Z,1025.09
2023-01-27T09:20:32.674Z,1025.09
2023-01-27T09:21:33.573Z,1025.07
2023-01-27T09:22:38.871Z,1025.15
2023-01-27T09:23:35.597Z,1025.15
2023-01-27T09:24:33.008Z,1025.18
2023-01-27T09:25:33.230Z,1025.20
2023-01-27T09:26:33.988Z,1025.24
2023-01-27T09:27:39.120Z,1025.21
2023-01-27T09:28:33.701Z,1025.23
2023-01-27T09:29:32.596Z,1025.20
2023-01-27T09:30:32.788Z,1025.24
2023-01-27T09:31:32.612Z,1025.25
2023-01-27T09:32:34.717Z,1025.25
2023-01-27T09:33:32.696Z,1025.26
2023-01-27T09:34:33.023Z,1025.31
2023-01-27T09:35:42.253Z,1025.31
2023-01-27T09:36:32.651Z,1025.31
2023-01-27T09:37:32.493Z,1025.36
2023-01-27T09:38:33.046Z,1025.40
2023-01-27T09:39:33.086Z,1025.32
2023-01-27T09:40:32.910Z,1025.36
2023-01-27T09:41:32.386Z,1025.37
2023-01-27T09:42:32.360Z,1025.34
2023-01-27T09:43:32.347Z,1025.38
2023-01-27T09:44:32.324Z,1025.42
2023-01-27T09:45:32.438Z,1025.47
2023-01-27T09:46:32.415Z,1025.46
2023-01-27T09:47:32.462Z,1025.46
2023-01-27T09:48:32.382Z,1025.47
2023-01-27T09:49:32.404Z,1025.49
2023-01-27T09:50:32.427Z,1025.48
2023-01-27T09:51:32.329Z,1025.45
2023-01-27T09:52:46.356Z,1025.46
2023-01-27T09:53:33.213Z,1025.48
2023-01-27T09:54:32.229Z,1025.48
2023-01-27T09:55:32.247Z,1025.42
2023-01-27T09:56:32.407Z,1025.43
2023-01-27T09:57:32.184Z,1025.46
2023-01-27T09:58:32.193Z,1025.45
2023-01-27T09:59:32.767Z,1025.47
2023-01-27T10:00:32.090Z,1025.40
2023-01-27T10:01:32.147Z,1025.37
2023-01-27T10:02:32.164Z,1025.41
2023-01-27T10:03:32.040Z,1025.40
2023-01-27T10:04:32.040Z,1025.45
2023-01-27T10:05:32.048Z,1025.39
2023-01-27T10:06:34.598Z,1025.45
2023-01-27T10:07:32.029Z,1025.38
2023-01-27T10:08:31.988Z,1025.41
2023-01-27T10:09:32.031Z,1025.42
2023-01-27T10:10:31.973Z,1025.44
2023-01-27T10:11:31.977Z,1025.44
2023-01-27T10:12:31.944Z,1025.43
2023-01-27T10:13:31.962Z,1025.45
2023-01-27T10:14:31.941Z,1025.39
2023-01-27T10:15:32.132Z,1025.41
2023-01-27T10:16:31.925Z,1025.36
2023-01-27T10:17:32.393Z,1025.41
2023-01-27T10:18:32.386Z,1025.44
2023-01-27T10:19:31.857Z,1025.43
2023-01-27T10:20:31.849Z,1025.44
2023-01-27T10:21:31.864Z,1025.36
2023-01-27T10:22:31.827Z,1025.38
2023-01-27T10:23:31.802Z,1025.38
2023-01-27T10:24:31.790Z,1025.39
2023-01-27T10:25:31.838Z,1025.30
2023-01-27T10:26:31.814Z,1025.37
2023-01-27T10:27:31.766Z,1025.38
2023-01-27T10:28:31.779Z,1025.39
2023-01-27T10:29:31.719Z,1025.40
2023-01-27T10:30:32.045Z,1025.37
2023-01-27T10:31:31.821Z,1025.37
2023-01-27T10:32:31.790Z,1025.40
2023-01-27T10:33:31.647Z,1025.44
2023-01-27T10:34:31.717Z,1025.42
2023-01-27T10:35:31.664Z,1025.43
2023-01-27T10:36:31.609Z,1025.44
2023-01-27T10:37:31.951Z,1025.48
2023-01-27T10:38:31.575Z,1025.47
2023-01-27T10:39:31.611Z,1025.48
2023-01-27T10:40:31.581Z,1025.50
2023-01-27T10:41:31.553Z,1025.46
2023-01-27T10:42:31.550Z,1025.47
2023-01-27T10:43:31.656Z,1025.45
2023-01-27T10:44:31.514Z,1025.48
2023-01-27T10:45:31.660Z,1025.47
2023-01-27T10:46:31.535Z,1025.46
2023-01-27T10:47:31.503Z,1025.50
2023-01-27T10:48:31.544Z,1025.49
2023-01-27T10:49:31.562Z,1025.52
2023-01-27T10:50:31.629Z,1025.52
2023-01-27T10:51:31.433Z,1025.48
2023-01-27T10:52:31.421Z,1025.48
2023-01-27T10:53:31.536Z,1025.52
2023-01-27T10:54:31.431Z,1025.48
2023-01-27T10:55:31.453Z,1025.51
2023-01-27T10:56:31.499Z,1025.53
2023-01-27T10:57:31.332Z,1025.56
2023-01-27T10:58:31.360Z,1025.48
2023-01-27T10:59:31.347Z,1025.47
2023-01-27T11:01:04.730Z,1025.47
2023-01-27T11:01:32.338Z,1025.45
2023-01-27T11:02:31.279Z,1025.53
2023-01-27T11:03:31.312Z,1025.50
2023-01-27T11:04:31.384Z,1025.43
2023-01-27T11:05:31.260Z,1025.41
2023-01-27T11:06:31.442Z,1025.49
2023-01-27T11:07:31.236Z,1025.48
2023-01-27T11:08:31.359Z,1025.44
2023-01-27T11:09:31.176Z,1025.39
2023-01-27T11:10:31.255Z,1025.43
2023-01-27T11:11:31.283Z,1025.41
2023-01-27T11:12:31.197Z,1025.40
2023-01-27T11:13:31.268Z,1025.37
2023-01-27T11:14:31.178Z,1025.37
2023-01-27T11:15:31.191Z,1025.33
2023-01-27T11:16:31.214Z,1025.35
2023-01-27T11:17:31.155Z,1025.34
2023-01-27T11:18:31.145Z,1025.33
2023-01-27T11:19:31.055Z,1025.30
2023-01-27T11:20:31.053Z,1025.35
2023-01-27T11:21:31.042Z,1025.31
2023-01-27T11:22:31.079Z,1025.30
2023-01-27T11:23:31.036Z,1025.34
2023-01-27T11:24:31.052Z,1025.28
2023-01-27T11:25:30.969Z,1025.29
2023-01-27T11:26:31.186Z,1025.32
2023-01-27T11:27:30.971Z,1025.35
2023-01-27T11:28:30.961Z,1025.33
2023-01-27T11:29:30.932Z,1025.34
2023-01-27T11:30:31.525Z,1025.38
2023-01-27T11:31:31.141Z,1025.32
2023-01-27T11:32:30.914Z,1025.34
2023-01-27T11:33:30.855Z,1025.35
2023-01-27T11:34:30.848Z,1025.26
2023-01-27T11:35:30.858Z,1025.33
2023-01-27T11:36:30.859Z,1025.32
2023-01-27T11:37:31.187Z,1025.26
2023-01-27T11:38:31.086Z,1025.24
2023-01-27T11:39:30.842Z,1025.24
2023-01-27T11:40:30.754Z,1025.19
2023-01-27T11:41:30.796Z,1025.24
2023-01-27T11:42:30.765Z,1025.19
2023-01-27T11:43:30.721Z,1025.23
2023-01-27T11:44:30.710Z,1025.23
2023-01-27T11:45:30.793Z,1025.19
2023-01-27T11:46:31.172Z,1025.21
2023-01-27T11:47:30.686Z,1025.19
2023-01-27T11:48:30.676Z,1025.18
2023-01-27T11:49:30.676Z,1025.06
2023-01-27T11:50:30.668Z,1025.09
2023-01-27T11:51:30.739Z,1025.10
2023-01-27T11:52:30.656Z,1025.10
2023-01-27T11:53:30.613Z,1025.13
2023-01-27T11:54:30.579Z,1025.08
2023-01-27T11:55:30.571Z,1025.13
2023-01-27T11:56:30.632Z,1025.08
2023-01-27T11:57:30.617Z,1025.08
2023-01-27T11:58:30.648Z,1025.10
2023-01-27T11:59:30.502Z,1025.06
2023-01-27T12:00:30.542Z,1025.00
2023-01-27T12:01:30.516Z,1025.03
2023-01-27T12:02:30.507Z,1024.98
2023-01-27T12:03:30.558Z,1024.96
2023-01-27T12:04:30.579Z,1025.02
2023-01-27T12:05:30.454Z,1025.01
2023-01-27T12:06:30.457Z,1024.98
2023-01-27T12:07:30.439Z,1024.94